Flight Track Log - Related Links

Times and Time Zones

All times are in EDT time to prevent confusion due to time zone crossing. See the UCA4800 flight status page for this flight to view local times or setup timezone preferences in your user account.

Time Position Orientation Groundspeed Altitude Reporting Facility
EDT Latitude Longitude Course Direction KTS MPH feet Rate Location/Type
Mon 08:46:00 AM 41.6137 -75.4496 314° West  Level Estimated
Mon 08:47:00 AM 41.6518 -75.5038 313° West  Level Estimated
Mon 08:48:00 AM 41.6898 -75.5580 313° West  Level Estimated
Mon 08:49:00 AM 41.7279 -75.6123 313° West  Level Estimated
Mon 08:50:00 AM 41.7659 -75.6667 313° West  Level Estimated
Mon 08:51:00 AM 41.8038 -75.7211 313° West  Level Estimated
Mon 08:52:00 AM 41.8418 -75.7756 313° West  Level Estimated
Mon 08:53:00 AM 41.8797 -75.8301 313° West  Level Estimated
Mon 08:54:00 AM 41.9176 -75.8847 313° West  Level Estimated
Mon 08:55:00 AM 41.9554 -75.9394 313° West  Level Estimated
Mon 08:56:00 AM 41.9933 -75.9941 313° West  Level Estimated
Mon 08:57:00 AM 42.0311 -76.0490 313° West  Level Estimated
Mon 08:58:00 AM 42.0689 -76.1038 313° West  Level Estimated
Mon 08:59:00 AM 42.1066 -76.1588 313° West  Level Estimated
Mon 09:00:00 AM 42.1444 -76.2138 313° West  Level Estimated
Mon 09:01:00 AM 42.1821 -76.2688 313° West  Level Estimated
Mon 09:02:00 AM 42.2198 -76.3240 313° West  Level Estimated
Mon 09:03:00 AM 42.2574 -76.3792 313° West  Level Estimated
Mon 09:04:00 AM 42.2951 -76.4344 313° West  Level Estimated
Mon 09:05:00 AM 42.3327 -76.4898 313° West  Level Estimated
Mon 09:06:00 AM 42.3702 -76.5452 313° West  Level Estimated
Mon 09:07:00 AM 42.4078 -76.6006 313° West  Level Estimated
Mon 09:08:00 AM 42.4453 -76.6562 312° West  Level Estimated
Mon 09:09:00 AM 42.4828 -76.7117 312° West  Level Estimated
Mon 09:10:00 AM 42.5203 -76.7674 312° West  Level Estimated
Mon 09:11:00 AM 42.5577 -76.8231 312° West  Level Estimated
Mon 09:12:00 AM 42.5951 -76.8789 312° West  Level Estimated
Mon 09:13:00 AM 42.6325 -76.9348 312° West  Level Estimated
Mon 09:14:00 AM 42.6699 -76.9907 312° West  Level Estimated
Mon 09:15:00 AM 42.7072 -77.0467 312° West  Level Estimated
Mon 09:16:00 AM 42.7445 -77.1028 312° West  Level Estimated
Mon 09:17:00 AM 42.7818 -77.1589 312° West  Level Estimated
Mon 09:18:00 AM 42.8191 -77.2151 312° West  Level Estimated
Mon 09:19:00 AM 42.8563 -77.2714 312° West  Level Estimated
Mon 09:20:00 AM 42.8935 -77.3277 312° West  Level Estimated
Mon 09:21:00 AM 42.9307 -77.3841 312° West  Level Estimated
Mon 09:22:00 AM 42.9678 -77.4406 312° West  Level Estimated
Mon 09:23:00 AM 43.0049 -77.4971 312° West  Level Estimated
Mon 09:24:00 AM 43.0420 -77.5538 312° West  Level Estimated
Mon 09:25:00 AM 43.0791 -77.6104 312° West  Level Estimated
Mon 09:26:00 AM 43.1161 -77.6672 312° West  Level Estimated
Mon 09:27:00 AM 43.1191 -77.6719 312° West  Level Estimated
Mon 09:28:00 AM 43.1191 -77.6719 14° North  Level Estimated
Mon 09:29:00 AM 43.1191 -77.6719 14° North  Level Estimated
Mon 09:30:00 AM 43.1191 -77.6719 14° North  Level Estimated
Mon 09:31:00 AM 43.1191 -77.6719 14° North  Level Estimated
Mon 09:32:00 AM 43.1191 -77.6719 14° North  Level Estimated
Mon 09:33:00 AM 43.1191 -77.6719 14° North  Level Estimated
Mon 09:34:00 AM 43.1191 -77.6719 14° North  Level Estimated
Mon 09:35:00 AM 43.1191 -77.6719 14° North  Level Estimated
Mon 09:36:00 AM 43.1191 -77.6719 14° North  Level Estimated
Mon 09:37:00 AM 43.1191 -77.6719 14° North  Level Estimated
Mon 09:38:00 AM 43.1191 -77.6719 14° North  Level Estimated
Mon 09:39:00 AM 43.1191 -77.6719 14° North  Level Estimated
Mon 09:40:00 AM 43.1191 -77.6719 14° North  Level Estimated
Mon 09:41:00 AM 43.1191 -77.6719 14° North  Level Estimated
Mon 09:42:00 AM 43.1191 -77.6719 14° North  Level Estimated

Login

Don't have an account? Register now (free) for customized features, flight alerts, and more!